createdAt,value
2019-02-26T00:00:20.060Z,0.00
2019-02-26T00:01:20.621Z,0.00
2019-02-26T00:02:21.344Z,0.00
2019-02-26T00:03:19.747Z,0.00
2019-02-26T00:04:20.837Z,0.00
2019-02-26T00:05:21.424Z,0.00
2019-02-26T00:06:18.905Z,0.00
2019-02-26T00:07:20.593Z,0.00
2019-02-26T00:08:21.503Z,0.00
2019-02-26T00:09:20.776Z,0.00
2019-02-26T00:10:19.767Z,0.00
2019-02-26T00:11:18.166Z,0.00
2019-02-26T00:12:20.048Z,0.00
2019-02-26T00:13:18.105Z,0.00
2019-02-26T00:14:20.250Z,0.00
2019-02-26T00:15:18.088Z,0.00
2019-02-26T00:16:20.410Z,0.00
2019-02-26T00:17:19.661Z,0.00
2019-02-26T00:18:18.951Z,0.00
2019-02-26T00:19:18.040Z,0.00
2019-02-26T00:20:18.030Z,0.00
2019-02-26T00:21:19.889Z,0.00
2019-02-26T00:22:18.285Z,0.00
2019-02-26T00:23:19.815Z,0.00
2019-02-26T00:24:17.990Z,0.00
2019-02-26T00:25:20.351Z,0.00
2019-02-26T00:26:20.110Z,0.00
2019-02-26T00:27:17.978Z,0.00
2019-02-26T00:28:19.694Z,0.00
2019-02-26T00:29:17.931Z,0.00
2019-02-26T00:30:18.652Z,0.00
2019-02-26T00:31:19.267Z,0.00
2019-02-26T00:32:18.498Z,0.00
2019-02-26T00:33:21.489Z,0.00
2019-02-26T00:34:18.689Z,0.00
2019-02-26T00:35:19.062Z,0.00
2019-02-26T00:36:17.862Z,0.00
2019-02-26T00:37:19.580Z,0.00
2019-02-26T00:38:19.792Z,0.00
2019-02-26T00:39:17.827Z,0.00
2019-02-26T00:40:20.193Z,0.00
2019-02-26T00:41:20.313Z,0.00
2019-02-26T00:42:21.542Z,0.00
2019-02-26T00:43:23.259Z,0.00
2019-02-26T00:44:21.201Z,0.00
2019-02-26T00:45:22.373Z,0.00
2019-02-26T00:46:18.753Z,0.00
2019-02-26T00:47:17.760Z,0.00
2019-02-26T00:48:17.725Z,0.00
2019-02-26T00:49:19.086Z,0.00
2019-02-26T00:50:17.810Z,0.00
2019-02-26T00:51:18.837Z,0.00
2019-02-26T00:52:17.713Z,0.00
2019-02-26T00:53:21.214Z,0.00
2019-02-26T00:54:20.174Z,0.00
2019-02-26T00:55:17.652Z,0.00
2019-02-26T00:56:17.639Z,0.00
2019-02-26T00:57:17.796Z,0.00
2019-02-26T00:58:17.619Z,0.00
2019-02-26T00:59:17.612Z,0.00
2019-02-26T01:00:17.598Z,0.00
2019-02-26T01:01:19.402Z,0.00
2019-02-26T01:02:17.611Z,0.00
2019-02-26T01:03:17.564Z,0.00
2019-02-26T01:04:17.557Z,0.00
2019-02-26T01:05:17.550Z,0.00
2019-02-26T01:06:17.616Z,0.00
2019-02-26T01:07:19.182Z,0.00
2019-02-26T01:08:19.717Z,0.00
2019-02-26T01:09:17.501Z,0.00
2019-02-26T01:10:19.280Z,0.00
2019-02-26T01:11:19.309Z,0.00
2019-02-26T01:12:18.322Z,0.00
2019-02-26T01:13:17.483Z,0.00
2019-02-26T01:14:18.622Z,0.00
2019-02-26T01:15:17.437Z,0.00
2019-02-26T01:16:17.425Z,0.00
2019-02-26T01:17:18.839Z,0.00
2019-02-26T01:18:18.109Z,0.00
2019-02-26T01:19:18.086Z,0.00
2019-02-26T01:20:19.341Z,0.00
2019-02-26T01:21:17.379Z,0.00
2019-02-26T01:22:17.388Z,0.00
2019-02-26T01:23:19.473Z,0.00
2019-02-26T01:24:17.365Z,0.00
2019-02-26T01:25:18.483Z,0.00
2019-02-26T01:26:17.318Z,0.00
2019-02-26T01:27:17.501Z,0.00
2019-02-26T01:28:18.651Z,0.00
2019-02-26T01:29:20.682Z,0.00
2019-02-26T01:30:20.790Z,0.00
2019-02-26T01:31:19.822Z,0.00
2019-02-26T01:32:18.092Z,0.00
2019-02-26T01:33:17.471Z,0.00
2019-02-26T01:34:18.069Z,0.00
2019-02-26T01:35:17.223Z,0.00
2019-02-26T01:36:19.156Z,0.00
2019-02-26T01:37:17.277Z,0.00
2019-02-26T01:38:18.897Z,0.00
2019-02-26T01:39:19.250Z,0.00
2019-02-26T01:40:21.060Z,0.00
2019-02-26T01:41:18.098Z,0.00
2019-02-26T01:42:18.085Z,0.00
2019-02-26T01:43:17.160Z,0.00
2019-02-26T01:44:17.129Z,0.00
2019-02-26T01:45:19.410Z,0.00
2019-02-26T01:46:18.699Z,0.00
2019-02-26T01:47:19.280Z,0.00
2019-02-26T01:48:18.574Z,0.00
2019-02-26T01:49:19.138Z,0.00
2019-02-26T01:50:17.065Z,0.00
2019-02-26T01:51:19.214Z,0.00
2019-02-26T01:52:17.475Z,0.00
2019-02-26T01:53:19.242Z,0.00
2019-02-26T01:54:17.028Z,0.00
2019-02-26T01:55:18.391Z,0.00
2019-02-26T01:56:17.716Z,0.00
2019-02-26T01:57:17.436Z,0.00
2019-02-26T01:58:17.008Z,0.00
2019-02-26T01:59:19.027Z,0.00
2019-02-26T02:00:16.960Z,0.00
2019-02-26T02:01:19.238Z,0.00
2019-02-26T02:02:18.129Z,0.00
2019-02-26T02:03:18.700Z,0.00
2019-02-26T02:04:17.228Z,0.00
2019-02-26T02:05:19.069Z,0.00
2019-02-26T02:06:18.185Z,0.00
2019-02-26T02:07:18.863Z,0.00
2019-02-26T02:08:17.871Z,0.00
2019-02-26T02:09:18.693Z,0.00
2019-02-26T02:10:16.855Z,0.00
2019-02-26T02:11:16.848Z,0.00
2019-02-26T02:12:16.830Z,0.00
2019-02-26T02:13:16.855Z,0.00
2019-02-26T02:14:17.151Z,0.00
2019-02-26T02:15:18.842Z,0.00
2019-02-26T02:16:16.788Z,0.00
2019-02-26T02:17:16.791Z,0.00
2019-02-26T02:18:18.099Z,0.00
2019-02-26T02:19:20.136Z,0.00
2019-02-26T02:20:20.889Z,0.00
2019-02-26T02:21:16.724Z,0.00
2019-02-26T02:22:17.353Z,0.00
2019-02-26T02:23:16.714Z,0.00
2019-02-26T02:24:17.468Z,0.00
2019-02-26T02:25:16.689Z,0.00
2019-02-26T02:26:16.672Z,0.00
2019-02-26T02:27:19.429Z,0.00
2019-02-26T02:28:19.451Z,0.00
2019-02-26T02:29:19.170Z,0.00
2019-02-26T02:30:22.613Z,0.00
2019-02-26T02:31:17.621Z,0.00
2019-02-26T02:32:16.609Z,0.00
2019-02-26T02:33:19.574Z,0.00
2019-02-26T02:34:17.616Z,0.00
2019-02-26T02:35:19.154Z,0.00
2019-02-26T02:36:17.669Z,0.00
2019-02-26T02:37:18.578Z,0.00
2019-02-26T02:38:20.392Z,0.00
2019-02-26T02:39:18.213Z,0.00
2019-02-26T02:40:16.550Z,0.00
2019-02-26T02:41:16.520Z,0.00
2019-02-26T02:42:18.932Z,0.00
2019-02-26T02:43:18.086Z,0.00
2019-02-26T02:44:17.868Z,0.00
2019-02-26T02:45:20.191Z,0.00
2019-02-26T02:46:16.461Z,0.00
2019-02-26T02:47:16.453Z,0.00
2019-02-26T02:48:16.441Z,0.00
2019-02-26T02:49:17.938Z,0.00
2019-02-26T02:50:18.295Z,0.00
2019-02-26T02:51:16.406Z,0.00
2019-02-26T02:52:16.398Z,0.00
2019-02-26T02:53:20.467Z,0.00
2019-02-26T02:54:18.584Z,0.00
2019-02-26T02:55:19.354Z,0.00
2019-02-26T02:56:17.951Z,0.00
2019-02-26T02:57:16.351Z,0.00
2019-02-26T02:58:18.203Z,0.00
2019-02-26T02:59:16.542Z,0.00
2019-02-26T03:00:16.321Z,0.00
2019-02-26T03:01:17.520Z,0.00
2019-02-26T03:02:17.672Z,0.00
2019-02-26T03:03:16.286Z,0.00
2019-02-26T03:04:19.609Z,0.00
2019-02-26T03:05:16.253Z,0.00
2019-02-26T03:06:16.274Z,0.00
2019-02-26T03:07:17.855Z,0.00
2019-02-26T03:08:18.393Z,0.00
2019-02-26T03:09:17.752Z,0.00
2019-02-26T03:10:16.203Z,0.00
2019-02-26T03:11:16.188Z,0.00
2019-02-26T03:12:16.181Z,0.00
2019-02-26T03:13:17.070Z,0.00
2019-02-26T03:14:18.487Z,0.00
2019-02-26T03:15:16.156Z,0.00
2019-02-26T03:16:18.722Z,0.00
2019-02-26T03:17:19.706Z,0.00
2019-02-26T03:18:16.869Z,0.00
2019-02-26T03:19:17.004Z,0.00
2019-02-26T03:20:16.096Z,0.00
2019-02-26T03:21:16.804Z,0.00
2019-02-26T03:22:18.830Z,0.00
2019-02-26T03:23:19.992Z,0.00
2019-02-26T03:24:16.095Z,0.00
2019-02-26T03:25:17.457Z,0.00
2019-02-26T03:26:17.889Z,0.00
2019-02-26T03:27:16.017Z,0.00
2019-02-26T03:28:16.011Z,0.00
2019-02-26T03:29:16.031Z,0.00
2019-02-26T03:30:21.377Z,0.00
2019-02-26T03:31:16.985Z,0.00
2019-02-26T03:32:15.972Z,0.00
2019-02-26T03:33:15.957Z,0.00
2019-02-26T03:34:21.747Z,0.00
2019-02-26T03:35:19.667Z,0.00
2019-02-26T03:36:19.106Z,0.00
2019-02-26T03:37:15.918Z,0.00
2019-02-26T03:38:17.807Z,0.00
2019-02-26T03:39:15.921Z,0.00
2019-02-26T03:40:15.881Z,0.00
2019-02-26T03:41:16.696Z,0.00
2019-02-26T03:42:18.173Z,0.00
2019-02-26T03:43:16.196Z,0.00
2019-02-26T03:44:15.893Z,0.00
2019-02-26T03:45:15.828Z,0.00
2019-02-26T03:46:15.818Z,0.00
2019-02-26T03:47:16.297Z,0.00
2019-02-26T03:48:19.275Z,0.00
2019-02-26T03:49:15.789Z,0.00
2019-02-26T03:50:15.812Z,0.00
2019-02-26T03:51:17.876Z,0.00
2019-02-26T03:52:15.982Z,0.00
2019-02-26T03:53:15.741Z,0.00
2019-02-26T03:54:15.734Z,0.00
2019-02-26T03:55:18.992Z,0.00
2019-02-26T03:56:18.291Z,0.00
2019-02-26T03:57:16.769Z,0.00
2019-02-26T03:58:15.690Z,0.00
2019-02-26T03:59:15.680Z,0.00
2019-02-26T04:00:17.402Z,0.00
2019-02-26T04:01:18.307Z,0.00
2019-02-26T04:02:18.164Z,0.00
2019-02-26T04:03:17.481Z,0.00
2019-02-26T04:04:15.620Z,0.00
2019-02-26T04:05:15.646Z,0.00
2019-02-26T04:06:26.404Z,0.00
2019-02-26T04:07:15.594Z,0.00
2019-02-26T04:08:16.633Z,0.00
2019-02-26T04:09:17.211Z,0.00
2019-02-26T04:10:15.589Z,0.00
2019-02-26T04:11:16.906Z,0.00
2019-02-26T04:12:18.306Z,0.00
2019-02-26T04:13:15.527Z,0.00
2019-02-26T04:14:18.045Z,0.00
2019-02-26T04:15:15.535Z,0.00
2019-02-26T04:16:15.496Z,0.00
2019-02-26T04:17:15.491Z,0.00
2019-02-26T04:18:15.476Z,0.00
2019-02-26T04:19:15.461Z,0.00
2019-02-26T04:20:15.481Z,0.00
2019-02-26T04:21:18.292Z,0.00
2019-02-26T04:22:18.783Z,0.00
2019-02-26T04:23:18.703Z,0.00
2019-02-26T04:24:15.412Z,0.00
2019-02-26T04:25:15.423Z,0.00
2019-02-26T04:26:18.520Z,0.00
2019-02-26T04:27:16.379Z,0.00
2019-02-26T04:28:15.369Z,0.00
2019-02-26T04:29:15.353Z,0.00
2019-02-26T04:30:16.247Z,0.00
2019-02-26T04:31:15.343Z,0.00
2019-02-26T04:32:18.174Z,0.00
2019-02-26T04:33:15.314Z,0.00
2019-02-26T04:34:15.301Z,0.00
2019-02-26T04:35:15.324Z,0.00
2019-02-26T04:36:16.939Z,0.00
2019-02-26T04:37:15.282Z,0.00
2019-02-26T04:38:15.258Z,0.00
2019-02-26T04:39:18.413Z,0.00
2019-02-26T04:40:15.235Z,0.00
2019-02-26T04:41:15.975Z,0.00
2019-02-26T04:42:19.777Z,0.00
2019-02-26T04:43:16.211Z,0.00
2019-02-26T04:44:15.199Z,0.00
2019-02-26T04:45:15.181Z,0.00
2019-02-26T04:46:15.201Z,0.00
2019-02-26T04:47:15.163Z,0.00
2019-02-26T04:48:19.365Z,0.00
2019-02-26T04:49:16.143Z,0.00
2019-02-26T04:50:15.136Z,0.00
2019-02-26T04:51:15.146Z,0.00
2019-02-26T04:52:17.384Z,0.00
2019-02-26T04:53:15.101Z,0.00
2019-02-26T04:54:21.166Z,0.00
2019-02-26T04:55:16.072Z,0.00
2019-02-26T04:56:15.171Z,0.00
2019-02-26T04:57:15.053Z,0.00
2019-02-26T04:58:17.650Z,0.00
2019-02-26T04:59:16.929Z,0.00
2019-02-26T05:00:15.027Z,0.00
2019-02-26T05:01:16.385Z,0.00
2019-02-26T05:02:15.000Z,0.00
2019-02-26T05:03:17.299Z,0.00
2019-02-26T05:04:14.988Z,0.00
2019-02-26T05:05:14.980Z,0.00
2019-02-26T05:06:14.983Z,0.00
2019-02-26T05:07:17.282Z,0.00
2019-02-26T05:08:17.617Z,0.00
2019-02-26T05:09:14.934Z,0.00
2019-02-26T05:10:14.918Z,0.00
2019-02-26T05:11:22.807Z,0.00
2019-02-26T05:12:15.895Z,0.00
2019-02-26T05:13:14.884Z,0.00
2019-02-26T05:14:20.749Z,0.00
2019-02-26T05:15:18.061Z,0.00
2019-02-26T05:16:14.877Z,0.00
2019-02-26T05:17:14.843Z,0.00
2019-02-26T05:18:14.863Z,0.00
2019-02-26T05:19:17.019Z,0.00
2019-02-26T05:20:16.547Z,0.00
2019-02-26T05:21:14.821Z,0.00
2019-02-26T05:22:14.789Z,0.00
2019-02-26T05:23:14.778Z,0.00
2019-02-26T05:24:17.451Z,0.00
2019-02-26T05:25:19.207Z,0.00
2019-02-26T05:26:16.090Z,0.00
2019-02-26T05:27:15.488Z,0.00
2019-02-26T05:28:17.494Z,0.00
2019-02-26T05:29:14.711Z,0.00
2019-02-26T05:30:17.236Z,0.00
2019-02-26T05:31:17.299Z,0.00
2019-02-26T05:32:14.675Z,0.00
2019-02-26T05:33:14.675Z,0.00
2019-02-26T05:34:17.733Z,0.00
2019-02-26T05:35:17.345Z,0.00
2019-02-26T05:36:17.230Z,0.00
2019-02-26T05:37:14.628Z,0.00
2019-02-26T05:38:14.621Z,0.00
2019-02-26T05:39:18.084Z,0.00
2019-02-26T05:40:18.937Z,0.00
2019-02-26T05:41:15.579Z,0.00
2019-02-26T05:42:14.596Z,0.00
2019-02-26T05:43:14.564Z,0.00
2019-02-26T05:44:14.557Z,0.00
2019-02-26T05:45:14.541Z,0.00
2019-02-26T05:46:15.920Z,0.00
2019-02-26T05:47:16.709Z,0.00
2019-02-26T05:48:17.686Z,0.00
2019-02-26T05:49:17.038Z,0.00
2019-02-26T05:50:16.714Z,0.00
2019-02-26T05:51:14.487Z,0.00
2019-02-26T05:52:14.498Z,0.00
2019-02-26T05:53:14.465Z,0.00
2019-02-26T05:54:17.733Z,0.00
2019-02-26T05:55:16.776Z,0.00
2019-02-26T05:56:17.022Z,0.00
2019-02-26T05:57:27.030Z,0.00
2019-02-26T05:58:18.619Z,0.00
2019-02-26T05:59:15.867Z,0.00
2019-02-26T06:00:17.207Z,0.00
2019-02-26T06:01:16.856Z,0.00
2019-02-26T06:02:16.963Z,0.00
2019-02-26T06:03:16.284Z,0.00
2019-02-26T06:04:15.037Z,0.00
2019-02-26T06:05:17.466Z,0.00
2019-02-26T06:06:14.315Z,0.00
2019-02-26T06:07:19.225Z,0.00
2019-02-26T06:08:15.299Z,0.00
2019-02-26T06:09:14.291Z,0.00
2019-02-26T06:10:14.274Z,5.62
2019-02-26T06:11:16.928Z,5.62
2019-02-26T06:12:14.288Z,5.62
2019-02-26T06:13:15.666Z,5.62
2019-02-26T06:14:14.263Z,5.62
2019-02-26T06:15:14.225Z,5.62
2019-02-26T06:16:14.302Z,11.25
2019-02-26T06:17:15.507Z,11.25
2019-02-26T06:18:14.363Z,11.25
2019-02-26T06:19:15.799Z,11.25
2019-02-26T06:20:14.349Z,16.88
2019-02-26T06:21:16.653Z,16.88
2019-02-26T06:22:17.148Z,16.88
2019-02-26T06:23:14.132Z,22.50
2019-02-26T06:24:14.134Z,22.50
2019-02-26T06:25:22.783Z,22.50
2019-02-26T06:26:17.707Z,28.12
2019-02-26T06:27:16.622Z,28.12
2019-02-26T06:28:15.997Z,33.75
2019-02-26T06:29:14.070Z,33.75
2019-02-26T06:30:14.063Z,39.38
2019-02-26T06:31:16.631Z,39.38
2019-02-26T06:32:14.063Z,45.00
2019-02-26T06:33:16.299Z,45.00
2019-02-26T06:34:16.180Z,50.62
2019-02-26T06:35:16.082Z,50.62
2019-02-26T06:36:13.996Z,56.25
2019-02-26T06:37:16.397Z,56.25
2019-02-26T06:38:13.999Z,61.88
2019-02-26T06:39:13.961Z,61.88
2019-02-26T06:40:13.959Z,67.50
2019-02-26T06:41:13.944Z,67.50
2019-02-26T06:42:14.464Z,73.12
2019-02-26T06:43:13.950Z,73.12
2019-02-26T06:44:13.910Z,78.75
2019-02-26T06:45:16.269Z,84.38
2019-02-26T06:46:14.111Z,84.38
2019-02-26T06:47:13.876Z,90.00
2019-02-26T06:48:16.978Z,95.62
2019-02-26T06:49:14.963Z,95.62
2019-02-26T06:50:16.032Z,101.25
2019-02-26T06:51:13.831Z,101.25
2019-02-26T06:52:15.558Z,101.25
2019-02-26T06:53:16.137Z,101.25
2019-02-26T06:54:15.490Z,106.88
2019-02-26T06:55:13.802Z,106.88
2019-02-26T06:56:16.036Z,112.50
2019-02-26T06:57:13.772Z,118.12
2019-02-26T06:58:13.786Z,118.12
2019-02-26T06:59:13.744Z,123.75
2019-02-26T07:00:13.737Z,123.75
2019-02-26T07:01:14.400Z,129.38
2019-02-26T07:02:13.714Z,129.38
2019-02-26T07:03:13.728Z,135.00
2019-02-26T07:04:13.696Z,135.00
2019-02-26T07:05:13.683Z,135.00
2019-02-26T07:06:13.675Z,140.62
2019-02-26T07:07:14.458Z,140.62
2019-02-26T07:08:13.690Z,146.25
2019-02-26T07:09:15.793Z,146.25
2019-02-26T07:10:16.294Z,146.25
2019-02-26T07:11:13.640Z,151.88
2019-02-26T07:12:14.609Z,151.88
2019-02-26T07:13:14.127Z,157.50
2019-02-26T07:14:13.588Z,157.50
2019-02-26T07:15:13.573Z,163.12
2019-02-26T07:16:13.571Z,163.12
2019-02-26T07:17:13.908Z,168.75
2019-02-26T07:18:16.999Z,168.75
2019-02-26T07:19:16.624Z,168.75
2019-02-26T07:20:13.526Z,174.38
2019-02-26T07:21:13.546Z,174.38
2019-02-26T07:22:15.924Z,180.00
2019-02-26T07:23:15.429Z,180.00
2019-02-26T07:24:15.262Z,180.00
2019-02-26T07:25:15.971Z,185.62
2019-02-26T07:26:16.055Z,185.62
2019-02-26T07:27:13.962Z,191.25
2019-02-26T07:28:15.164Z,191.25
2019-02-26T07:29:17.352Z,208.12
2019-02-26T07:30:13.416Z,225.00
2019-02-26T07:31:13.415Z,236.25
2019-02-26T07:32:14.834Z,241.88
2019-02-26T07:33:15.057Z,247.50
2019-02-26T07:34:15.202Z,253.12
2019-02-26T07:35:16.383Z,253.12
2019-02-26T07:36:13.369Z,258.75
2019-02-26T07:37:13.975Z,258.75
2019-02-26T07:38:13.365Z,264.38
2019-02-26T07:39:15.334Z,264.38
2019-02-26T07:40:15.896Z,275.62
2019-02-26T07:41:13.305Z,292.50
2019-02-26T07:42:14.669Z,320.62
2019-02-26T07:43:15.363Z,326.25
2019-02-26T07:44:15.707Z,326.25
2019-02-26T07:45:15.342Z,337.50
2019-02-26T07:46:14.612Z,354.38
2019-02-26T07:47:13.241Z,365.62
2019-02-26T07:48:16.110Z,416.25
2019-02-26T07:49:13.216Z,506.25
2019-02-26T07:50:14.577Z,545.62
2019-02-26T07:51:13.192Z,534.38
2019-02-26T07:52:13.183Z,511.88
2019-02-26T07:53:14.500Z,472.50
2019-02-26T07:54:13.166Z,466.88
2019-02-26T07:55:16.834Z,461.25
2019-02-26T07:56:13.133Z,455.62
2019-02-26T07:57:13.128Z,472.50
2019-02-26T07:58:13.738Z,472.50
2019-02-26T07:59:15.024Z,472.50
2019-02-26T08:00:13.092Z,478.12
2019-02-26T08:01:13.090Z,478.12
2019-02-26T08:02:13.596Z,472.50
2019-02-26T08:03:13.256Z,472.50
2019-02-26T08:04:13.585Z,478.12
2019-02-26T08:05:13.036Z,489.38
2019-02-26T08:06:14.051Z,500.62
2019-02-26T08:07:13.032Z,517.50
2019-02-26T08:08:14.380Z,523.12
2019-02-26T08:09:14.541Z,528.75
2019-02-26T08:10:14.556Z,540.00
2019-02-26T08:11:14.859Z,556.88
2019-02-26T08:12:13.752Z,568.12
2019-02-26T08:13:12.954Z,579.38
2019-02-26T08:14:14.328Z,601.88
2019-02-26T08:15:15.475Z,618.75
2019-02-26T08:16:12.930Z,635.62
2019-02-26T08:17:12.912Z,646.88
2019-02-26T08:18:12.913Z,658.12
2019-02-26T08:19:12.919Z,663.75
2019-02-26T08:20:14.776Z,669.38
2019-02-26T08:21:12.873Z,658.12
2019-02-26T08:22:12.860Z,652.50
2019-02-26T08:23:14.645Z,652.50
2019-02-26T08:24:14.787Z,669.38
2019-02-26T08:25:12.822Z,686.25
2019-02-26T08:26:12.807Z,675.00
2019-02-26T08:27:13.542Z,697.50
2019-02-26T08:28:13.529Z,703.12
2019-02-26T08:29:12.823Z,708.75
2019-02-26T08:30:14.923Z,714.38
2019-02-26T08:31:15.430Z,714.38
2019-02-26T08:32:15.875Z,714.38
2019-02-26T08:33:13.747Z,714.38
2019-02-26T08:34:15.111Z,697.50
2019-02-26T08:35:12.711Z,697.50
2019-02-26T08:36:14.111Z,714.38
2019-02-26T08:37:12.690Z,731.25
2019-02-26T08:38:12.685Z,759.38
2019-02-26T08:39:15.709Z,776.25
2019-02-26T08:40:12.660Z,798.75
2019-02-26T08:41:12.649Z,815.62
2019-02-26T08:42:12.640Z,787.50
2019-02-26T08:43:12.628Z,832.50
2019-02-26T08:44:12.649Z,838.12
2019-02-26T08:45:14.954Z,832.50
2019-02-26T08:46:14.151Z,860.62
2019-02-26T08:47:13.910Z,871.88
2019-02-26T08:48:13.278Z,894.38
2019-02-26T08:49:13.780Z,911.25
2019-02-26T08:50:14.875Z,911.25
2019-02-26T08:51:16.044Z,888.75
2019-02-26T08:52:12.535Z,888.75
2019-02-26T08:53:12.518Z,916.88
2019-02-26T08:54:20.522Z,956.25
2019-02-26T08:55:15.562Z,939.38
2019-02-26T08:56:12.485Z,961.88
2019-02-26T08:57:12.465Z,967.50
2019-02-26T08:58:12.627Z,967.50
2019-02-26T08:59:12.493Z,990.00
2019-02-26T09:00:12.446Z,1023.75
2019-02-26T09:01:12.430Z,1023.75
2019-02-26T09:02:12.422Z,1023.75
2019-02-26T09:03:13.821Z,1035.00
2019-02-26T09:04:14.423Z,1046.25
2019-02-26T09:05:12.416Z,1046.25
2019-02-26T09:06:13.655Z,1046.25
2019-02-26T09:07:14.007Z,1023.75
2019-02-26T09:08:13.997Z,1051.88
2019-02-26T09:09:12.346Z,1063.12
2019-02-26T09:10:13.141Z,1091.25
2019-02-26T09:11:13.522Z,1091.25
2019-02-26T09:12:12.321Z,1080.00
2019-02-26T09:13:14.658Z,1091.25
2019-02-26T09:14:14.140Z,1119.38
2019-02-26T09:15:12.304Z,1153.12
2019-02-26T09:16:12.271Z,1158.75
2019-02-26T09:17:12.259Z,1164.38
2019-02-26T09:18:12.247Z,1175.62
2019-02-26T09:19:12.241Z,1186.88
2019-02-26T09:20:14.315Z,1181.25
2019-02-26T09:21:13.493Z,1102.50
2019-02-26T09:22:14.178Z,1130.62
2019-02-26T09:23:16.337Z,1186.88
2019-02-26T09:24:12.185Z,1198.12
2019-02-26T09:25:12.201Z,1209.38
2019-02-26T09:26:12.238Z,1226.25
2019-02-26T09:27:12.154Z,1209.38
2019-02-26T09:28:12.150Z,1198.12
2019-02-26T09:29:12.654Z,1220.62
2019-02-26T09:30:14.007Z,1170.00
2019-02-26T09:31:14.072Z,1153.12
2019-02-26T09:32:13.835Z,1209.38
2019-02-26T09:33:12.817Z,1226.25
2019-02-26T09:34:12.079Z,1209.38
2019-02-26T09:35:12.695Z,1220.62
2019-02-26T09:36:14.872Z,1231.88
2019-02-26T09:37:12.083Z,1231.88
2019-02-26T09:38:12.924Z,1243.12
2019-02-26T09:39:13.179Z,1260.00
2019-02-26T09:40:12.062Z,1276.88
2019-02-26T09:41:14.037Z,1276.88
2019-02-26T09:42:12.011Z,1288.12
2019-02-26T09:43:12.919Z,1125.00
2019-02-26T09:44:11.990Z,708.75
2019-02-26T09:45:12.005Z,472.50
2019-02-26T09:46:14.473Z,405.00
2019-02-26T09:47:11.954Z,388.12
2019-02-26T09:48:12.224Z,382.50
2019-02-26T09:49:12.578Z,382.50
2019-02-26T09:50:12.855Z,382.50
2019-02-26T09:51:14.153Z,376.88
2019-02-26T09:52:11.894Z,376.88
2019-02-26T09:53:11.890Z,376.88
2019-02-26T09:54:13.207Z,376.88
2019-02-26T09:55:11.861Z,376.88
2019-02-26T09:56:11.881Z,376.88
2019-02-26T09:57:11.836Z,376.88
2019-02-26T09:58:13.516Z,376.88
2019-02-26T09:59:13.011Z,376.88
2019-02-26T10:00:11.815Z,376.88
2019-02-26T10:01:13.548Z,376.88
2019-02-26T10:02:11.791Z,376.88
2019-02-26T10:03:13.205Z,376.88
2019-02-26T10:04:11.763Z,376.88
2019-02-26T10:05:13.618Z,376.88
2019-02-26T10:06:13.625Z,376.88
2019-02-26T10:07:14.168Z,376.88
2019-02-26T10:08:11.723Z,376.88
2019-02-26T10:09:14.043Z,376.88
2019-02-26T10:10:14.009Z,382.50
2019-02-26T10:11:11.715Z,382.50
2019-02-26T10:12:15.115Z,382.50
2019-02-26T10:13:11.673Z,382.50
2019-02-26T10:14:12.702Z,382.50
2019-02-26T10:15:11.649Z,382.50
2019-02-26T10:16:11.664Z,382.50
2019-02-26T10:17:14.029Z,382.50
2019-02-26T10:18:11.621Z,382.50
2019-02-26T10:19:12.564Z,382.50
2019-02-26T10:20:11.589Z,382.50
2019-02-26T10:21:14.709Z,382.50
2019-02-26T10:22:13.567Z,382.50
2019-02-26T10:23:11.564Z,382.50
2019-02-26T10:24:11.552Z,382.50
2019-02-26T10:25:11.533Z,382.50
2019-02-26T10:26:11.551Z,382.50
2019-02-26T10:27:14.030Z,382.50
2019-02-26T10:28:12.171Z,388.12
2019-02-26T10:29:11.506Z,388.12
2019-02-26T10:30:14.231Z,388.12
2019-02-26T10:31:11.506Z,388.12
2019-02-26T10:32:11.945Z,388.12
2019-02-26T10:33:11.450Z,388.12
2019-02-26T10:34:12.719Z,388.12
2019-02-26T10:35:14.070Z,393.75
2019-02-26T10:36:13.465Z,393.75
2019-02-26T10:37:11.417Z,388.12
2019-02-26T10:38:11.822Z,388.12
2019-02-26T10:39:11.392Z,388.12
2019-02-26T10:40:12.074Z,393.75
2019-02-26T10:41:11.394Z,393.75
2019-02-26T10:42:12.167Z,393.75
2019-02-26T10:43:11.350Z,393.75
2019-02-26T10:44:11.332Z,393.75
2019-02-26T10:45:11.319Z,393.75
2019-02-26T10:46:11.362Z,393.75
2019-02-26T10:47:11.294Z,393.75
2019-02-26T10:48:13.204Z,393.75
2019-02-26T10:49:12.443Z,393.75
2019-02-26T10:50:13.042Z,393.75
2019-02-26T10:51:11.285Z,393.75
2019-02-26T10:52:15.961Z,388.12
2019-02-26T10:53:15.750Z,388.12
2019-02-26T10:54:13.365Z,388.12
2019-02-26T10:55:14.956Z,388.12
2019-02-26T10:56:11.240Z,388.12
2019-02-26T10:57:14.172Z,388.12
2019-02-26T10:58:13.223Z,388.12
2019-02-26T10:59:13.110Z,388.12
2019-02-26T11:00:11.162Z,388.12
2019-02-26T11:01:11.160Z,388.12
2019-02-26T11:02:11.171Z,388.12
2019-02-26T11:03:12.919Z,393.75
2019-02-26T11:04:11.120Z,388.12
2019-02-26T11:05:13.581Z,388.12
2019-02-26T11:06:15.907Z,388.12
2019-02-26T11:07:14.128Z,388.12
2019-02-26T11:08:11.073Z,388.12
2019-02-26T11:09:11.060Z,388.12
2019-02-26T11:10:11.922Z,382.50
2019-02-26T11:11:13.023Z,382.50
2019-02-26T11:12:11.051Z,382.50
2019-02-26T11:13:13.034Z,376.88
2019-02-26T11:14:13.609Z,382.50
2019-02-26T11:15:12.067Z,382.50
2019-02-26T11:16:10.989Z,382.50
2019-02-26T11:17:11.001Z,382.50
2019-02-26T11:18:11.634Z,382.50
2019-02-26T11:19:12.327Z,382.50
2019-02-26T11:20:10.946Z,382.50
2019-02-26T11:21:10.926Z,382.50
2019-02-26T11:22:10.954Z,382.50
2019-02-26T11:23:13.415Z,382.50
2019-02-26T11:24:11.363Z,376.88
2019-02-26T11:25:12.971Z,382.50
2019-02-26T11:26:13.128Z,376.88
2019-02-26T11:27:10.902Z,376.88
2019-02-26T11:28:12.974Z,376.88
2019-02-26T11:29:10.849Z,376.88
2019-02-26T11:30:10.832Z,376.88
2019-02-26T11:31:12.174Z,376.88
2019-02-26T11:32:12.963Z,376.88
2019-02-26T11:33:13.137Z,376.88
2019-02-26T11:34:13.206Z,376.88
2019-02-26T11:35:10.794Z,376.88
2019-02-26T11:36:13.057Z,376.88
2019-02-26T11:37:10.782Z,376.88
2019-02-26T11:38:12.372Z,376.88
2019-02-26T11:39:12.084Z,376.88
2019-02-26T11:40:10.723Z,376.88
2019-02-26T11:41:10.715Z,376.88
2019-02-26T11:42:10.731Z,376.88
2019-02-26T11:43:12.406Z,376.88
2019-02-26T11:44:12.754Z,376.88
2019-02-26T11:45:12.599Z,376.88
2019-02-26T11:46:10.659Z,376.88
2019-02-26T11:47:11.228Z,376.88
2019-02-26T11:48:10.639Z,376.88
2019-02-26T11:49:11.980Z,376.88
2019-02-26T11:50:11.807Z,376.88
2019-02-26T11:51:12.065Z,376.88
2019-02-26T11:52:10.628Z,376.88
2019-02-26T11:53:10.603Z,376.88
2019-02-26T11:54:12.462Z,376.88
2019-02-26T11:55:11.286Z,376.88
2019-02-26T11:56:10.558Z,376.88
2019-02-26T11:57:12.920Z,376.88
2019-02-26T11:58:13.057Z,376.88
2019-02-26T11:59:12.656Z,376.88
2019-02-26T12:00:10.529Z,376.88
2019-02-26T12:01:10.529Z,376.88
2019-02-26T12:02:10.488Z,376.88
2019-02-26T12:03:10.540Z,371.25
2019-02-26T12:04:11.371Z,371.25
2019-02-26T12:05:10.794Z,371.25
2019-02-26T12:06:10.442Z,371.25
2019-02-26T12:07:10.435Z,371.25
2019-02-26T12:08:11.537Z,371.25
2019-02-26T12:09:11.505Z,371.25
2019-02-26T12:10:12.842Z,371.25
2019-02-26T12:11:15.177Z,371.25
2019-02-26T12:12:11.649Z,371.25
2019-02-26T12:13:10.406Z,371.25
2019-02-26T12:14:10.927Z,371.25
2019-02-26T12:15:12.462Z,376.88
2019-02-26T12:16:10.337Z,376.88
2019-02-26T12:17:10.331Z,376.88
2019-02-26T12:18:12.666Z,376.88
2019-02-26T12:19:10.883Z,376.88
2019-02-26T12:20:12.093Z,371.25
2019-02-26T12:21:12.671Z,371.25
2019-02-26T12:22:10.269Z,371.25
2019-02-26T12:23:11.658Z,371.25
2019-02-26T12:24:12.535Z,371.25
2019-02-26T12:25:11.112Z,371.25
2019-02-26T12:26:10.220Z,371.25
2019-02-26T12:27:13.321Z,371.25
2019-02-26T12:28:13.609Z,376.88
2019-02-26T12:29:10.326Z,382.50
2019-02-26T12:30:13.178Z,376.88
2019-02-26T12:31:12.801Z,376.88
2019-02-26T12:32:10.173Z,376.88
2019-02-26T12:33:12.294Z,376.88
2019-02-26T12:34:11.822Z,376.88
2019-02-26T12:35:12.115Z,376.88
2019-02-26T12:36:10.416Z,376.88
2019-02-26T12:37:11.643Z,382.50
2019-02-26T12:38:18.231Z,382.50
2019-02-26T12:39:11.223Z,382.50
2019-02-26T12:40:10.501Z,382.50
2019-02-26T12:41:12.329Z,410.62
2019-02-26T12:42:13.459Z,444.38
2019-02-26T12:43:11.767Z,461.25
2019-02-26T12:44:13.421Z,433.12
2019-02-26T12:45:13.650Z,450.00
2019-02-26T12:46:10.004Z,540.00
2019-02-26T12:47:11.989Z,568.12
2019-02-26T12:48:13.065Z,540.00
2019-02-26T12:49:12.673Z,466.88
2019-02-26T12:50:11.623Z,590.62
2019-02-26T12:51:09.956Z,646.88